Time;durP1;ratioP1;P1;durP2;ratioP2;P2;SDS_P1;SDS_P2;PMS_P1;PMS_P2;Temp;Humidity;BMP_temperature;BMP_pressure;BME280_temperature;BME280_humidity;BME280_pressure;Samples;Min_cycle;Max_cycle;Signal;HPM_P1;HPM_P2
2023/01/05 00:02:06;;;;;;;17.60;11.50;;;;;;;6.66;52.38;101151.09;105570;1300;1002811;-64
2023/01/05 00:04:32;;;;;;;14.80;10.50;;;;;;;6.69;52.28;101148.54;106300;1300;21994;-64
2023/01/05 00:06:58;;;;;;;17.90;11.40;;;;;;;6.73;52.36;101145.98;106292;1300;21993;-59
2023/01/05 00:09:24;;;;;;;20.60;12.00;;;;;;;6.79;52.50;101147.48;106381;1300;21951;-65
2023/01/05 00:22:55;;;;;;;16.40;10.70;;;;;;;7.11;52.59;101118.11;106309;1300;21958;-64
2023/01/05 00:25:26;;;;;;;13.50;9.40;;;;;;;7.22;52.83;101115.98;106327;1300;23650;-63
2023/01/05 00:27:52;;;;;;;12.10;8.40;;;;;;;7.36;52.84;101110.57;106305;1300;22008;-59
2023/01/05 00:30:20;;;;;;;13.50;8.40;;;;;;;7.53;52.68;101099.42;106365;1300;21958;-64
2023/01/05 00:32:46;;;;;;;13.80;8.70;;;;;;;7.65;52.63;101095.54;106362;1299;21950;-59
2023/01/05 00:35:13;;;;;;;12.90;8.20;;;;;;;7.74;52.44;101088.48;106353;1300;21971;-59
2023/01/05 00:37:38;;;;;;;14.00;7.70;;;;;;;7.83;52.31;101078.79;106383;1300;22102;-64
2023/01/05 00:40:06;;;;;;;12.90;9.10;;;;;;;7.88;52.18;101075.52;106312;1300;21981;-64
2023/01/05 00:42:32;;;;;;;13.40;8.60;;;;;;;7.85;52.11;101069.20;106370;1300;21970;-65
2023/01/05 00:45:02;;;;;;;12.40;8.20;;;;;;;7.84;51.88;101061.69;106333;1300;21955;-64
2023/01/05 00:47:28;;;;;;;16.90;8.40;;;;;;;7.85;51.90;101052.77;106318;1296;21946;-60
2023/01/05 00:49:54;;;;;;;13.60;8.30;;;;;;;7.82;51.79;101054.32;106312;1300;21971;-60
2023/01/05 00:52:22;;;;;;;13.60;8.20;;;;;;;7.78;51.80;101050.08;106354;1300;21967;-64
2023/01/05 00:54:48;;;;;;;13.50;8.80;;;;;;;7.78;51.80;101057.41;106311;1300;21998;-60
2023/01/05 00:57:14;;;;;;;13.00;8.20;;;;;;;7.74;51.85;101055.28;106341;1300;21962;-64
2023/01/05 00:59:40;;;;;;;13.70;8.50;;;;;;;7.73;51.66;101035.89;106294;1300;21993;-64
2023/01/05 01:02:06;;;;;;;13.40;8.70;;;;;;;7.67;51.85;101026.23;106305;1300;21975;-64
2023/01/05 01:04:32;;;;;;;14.00;8.40;;;;;;;7.66;51.74;101027.79;106381;1300;22050;-64
2023/01/05 01:06:58;;;;;;;13.80;9.10;;;;;;;7.64;51.66;101028.28;105661;1300;1002927;-59
2023/01/05 01:09:25;;;;;;;15.50;9.00;;;;;;;7.59;51.93;101024.21;106531;1300;21946;-64
2023/01/05 01:11:50;;;;;;;14.50;9.00;;;;;;;7.53;51.82;101027.83;106311;1300;21979;-64
2023/01/05 01:14:16;;;;;;;13.70;8.60;;;;;;;7.58;51.88;101027.01;106297;1300;21984;-64
2023/01/05 01:16:46;;;;;;;13.50;8.40;;;;;;;7.53;52.11;101015.23;106311;1300;22041;-64
2023/01/05 01:19:20;;;;;;;16.00;9.70;;;;;;;7.38;52.45;101008.98;106308;1300;21946;-64
2023/01/05 01:21:46;;;;;;;15.40;8.70;;;;;;;7.35;52.49;101007.02;106320;1300;21951;-63
2023/01/05 01:24:21;;;;;;;14.50;8.90;;;;;;;7.37;52.58;101004.42;106293;1300;24929;-64
2023/01/05 01:26:47;;;;;;;17.30;9.80;;;;;;;7.34;52.52;100985.17;106322;1299;21963;-64
2023/01/05 01:29:12;;;;;;;13.30;8.70;;;;;;;7.45;52.17;100962.95;106316;1298;21957;-64
2023/01/05 01:31:39;;;;;;;12.00;8.80;;;;;;;7.53;51.96;100948.53;105550;1300;1002531;-64
2023/01/05 01:34:06;;;;;;;12.00;8.10;;;;;;;7.56;51.89;100934.23;106281;1300;24051;-59
2023/01/05 01:36:32;;;;;;;12.40;8.00;;;;;;;7.57;52.13;100929.54;106519;1300;21939;-64
2023/01/05 01:38:58;;;;;;;12.30;8.50;;;;;;;7.59;52.05;100922.04;106283;1300;21995;-62
2023/01/05 01:41:24;;;;;;;12.70;9.00;;;;;;;7.57;52.32;100920.45;106304;1297;21936;-65
2023/01/05 01:43:54;;;;;;;15.30;9.30;;;;;;;7.58;52.37;100924.48;106403;1300;21966;-64
2023/01/05 01:46:20;;;;;;;14.80;9.30;;;;;;;7.60;52.24;100920.84;106346;1300;21964;-59
2023/01/05 01:49:07;;;;;;;13.30;8.20;;;;;;;7.59;52.44;100913.13;106293;1299;21961;-59
2023/01/05 01:51:40;;;;;;;17.30;9.70;;;;;;;7.61;52.57;100908.79;106240;1300;21971;-59
2023/01/05 01:54:08;;;;;;;16.00;8.70;;;;;;;7.68;52.49;100911.46;106498;1300;21953;-59
2023/01/05 01:56:37;;;;;;;15.30;8.80;;;;;;;7.71;52.42;100905.55;106377;1300;21968;-65
2023/01/05 01:59:03;;;;;;;14.70;9.00;;;;;;;7.71;52.27;100903.27;106298;1303;21966;-59
2023/01/05 02:01:29;;;;;;;11.90;8.70;;;;;;;7.72;52.43;100895.06;106237;1303;21938;-65
2023/01/05 02:03:56;;;;;;;14.30;8.80;;;;;;;7.79;52.29;100887.77;106239;1302;21951;-59
2023/01/05 02:06:21;;;;;;;13.70;9.00;;;;;;;7.80;52.18;100883.25;106292;1300;21951;-59
2023/01/05 02:08:47;;;;;;;15.50;9.70;;;;;;;7.78;52.32;100878.86;106299;1300;21975;-64
2023/01/05 02:11:34;;;;;;;16.30;10.90;;;;;;;7.73;52.44;100873.24;106232;1300;21969;-60
2023/01/05 02:14:25;;;;;;;18.40;10.50;;;;;;;7.71;52.52;100854.55;106241;1298;22002;-60
2023/01/05 02:17:19;;;;;;;15.00;9.50;;;;;;;7.71;52.64;100836.71;106293;1300;21995;-63
2023/01/05 02:20:10;;;;;;;18.90;10.60;;;;;;;7.72;52.61;100831.14;106377;1300;21962;-64
2023/01/05 02:22:54;;;;;;;;;;;;;;;7.77;52.73;100827.31;106443;1300;21934;-64
2023/01/05 02:25:40;;;;;;;15.30;10.70;;;;;;;7.78;53.06;100820.86;106315;1300;21958;-64
2023/01/05 02:28:26;;;;;;;18.80;12.50;;;;;;;7.78;53.14;100804.79;106375;1300;21961;-60
2023/01/05 02:31:07;;;;;;;20.00;12.10;;;;;;;7.77;53.33;100779.98;106250;1299;21960;-59
2023/01/05 02:34:11;;;;;;;;;;;;;;;7.79;53.38;100773.70;106378;1300;21955;-64
2023/01/05 02:37:07;;;;;;;18.60;11.70;;;;;;;7.77;53.65;100774.21;105717;1307;22008;-59
2023/01/05 02:40:10;;;;;;;17.30;11.20;;;;;;;7.76;54.40;100776.83;105604;1308;21951;-64
2023/01/05 02:42:36;;;;;;;17.40;10.60;;;;;;;7.85;54.12;100771.13;106267;1303;21953;-60
2023/01/05 02:45:06;;;;;;;16.80;10.90;;;;;;;7.91;53.93;100768.02;106178;1300;23211;-59
2023/01/05 02:47:42;;;;;;;17.00;11.30;;;;;;;7.94;54.18;100769.77;106534;1299;21962;-63
2023/01/05 02:50:14;;;;;;;16.10;10.50;;;;;;;7.96;54.08;100759.11;106387;1299;22007;-63
2023/01/05 02:52:50;;;;;;;14.70;10.60;;;;;;;8.02;53.86;100755.98;106421;1300;21959;-59
2023/01/05 02:55:17;;;;;;;17.40;11.30;;;;;;;8.04;53.93;100756.00;106326;1296;21957;-59
2023/01/05 02:58:00;;;;;;;17.40;11.10;;;;;;;8.08;54.01;100748.68;106382;1300;21956;-60
2023/01/05 03:00:29;;;;;;;14.30;10.00;;;;;;;8.14;53.70;100732.63;106240;1300;21948;-63
2023/01/05 03:02:59;;;;;;;14.00;10.10;;;;;;;8.15;53.47;100720.74;106304;1303;23085;-59
2023/01/05 03:05:28;;;;;;;15.60;9.90;;;;;;;8.17;53.44;100718.45;106514;1300;21998;-59
2023/01/05 03:08:05;;;;;;;14.70;9.40;;;;;;;8.16;53.63;100723.89;106562;1300;21961;-59
2023/01/05 03:16:07;;;;;;;15.50;10.20;;;;;;;8.22;53.78;100719.17;106231;1300;21967;-62
2023/01/05 03:19:34;;;;;;;17.60;11.10;;;;;;;8.24;53.80;100720.58;106418;1300;21968;-63
2023/01/05 03:21:21;;;;;;;15.30;10.80;;;;;;;8.24;54.04;100712.19;106381;1300;21951;-59
2023/01/05 03:37:59;;;;;;;16.30;10.60;;;;;;;8.52;54.06;100680.27;106192;1300;21998;-59
2023/01/05 03:40:29;;;;;;;16.10;10.40;;;;;;;8.54;54.29;100673.97;106291;1301;21958;-59
2023/01/05 03:42:56;;;;;;;13.60;8.80;;;;;;;8.55;54.34;100663.48;106489;1300;21961;-59
2023/01/05 03:45:26;;;;;;;15.90;9.60;;;;;;;8.60;54.40;100657.38;106522;1299;22140;-60
2023/01/05 03:47:52;;;;;;;12.50;9.10;;;;;;;8.64;54.20;100653.52;106423;1296;21981;-62
2023/01/05 03:50:18;;;;;;;14.70;9.90;;;;;;;8.61;54.72;100649.85;106440;1299;21969;-59
2023/01/05 03:52:44;;;;;;;17.40;11.00;;;;;;;8.58;54.96;100645.65;106419;1299;21950;-62
2023/01/05 03:55:10;;;;;;;14.70;9.80;;;;;;;8.56;55.24;100641.63;106588;1299;21959;-62
2023/01/05 03:57:37;;;;;;;16.90;11.10;;;;;;;8.54;55.34;100639.88;106464;1291;23754;-61
2023/01/05 04:00:04;;;;;;;16.40;9.90;;;;;;;8.51;55.67;100636.19;106541;1300;21955;-59
2023/01/05 04:02:31;;;;;;;14.30;9.10;;;;;;;8.52;55.86;100635.51;106558;1300;21948;-63
2023/01/05 04:04:57;;;;;;;13.90;8.70;;;;;;;8.51;55.86;100635.31;106521;1300;23328;-62
2023/01/05 04:07:24;;;;;;;13.80;10.00;;;;;;;8.55;55.75;100626.41;106500;1300;21945;-63
2023/01/05 04:09:54;;;;;;;14.80;9.90;;;;;;;8.59;55.73;100628.51;106510;1296;22017;-62
2023/01/05 04:12:20;;;;;;;14.10;10.00;;;;;;;8.52;56.06;100626.92;106381;1299;21950;-63
2023/01/05 04:14:46;;;;;;;14.50;10.20;;;;;;;8.54;55.87;100626.40;106542;1299;21958;-63
2023/01/05 04:17:12;;;;;;;14.90;9.90;;;;;;;8.58;55.68;100624.15;106528;1297;21978;-60
2023/01/05 04:19:37;;;;;;;14.70;9.90;;;;;;;8.62;55.54;100625.17;106533;1300;22005;-60
2023/01/05 04:22:03;;;;;;;14.50;9.10;;;;;;;8.66;55.24;100623.08;106451;1300;21954;-61
2023/01/05 04:24:29;;;;;;;14.00;9.10;;;;;;;8.66;55.33;100619.75;106507;1298;21952;-62
2023/01/05 04:26:55;;;;;;;15.60;10.10;;;;;;;8.62;55.54;100620.29;106433;1300;22184;-62
2023/01/05 04:29:21;;;;;;;15.40;9.80;;;;;;;8.62;55.58;100616.95;106462;1300;23718;-60
2023/01/05 04:31:48;;;;;;;14.50;10.00;;;;;;;8.65;55.30;100604.88;106459;1296;21961;-59
2023/01/05 04:34:14;;;;;;;15.00;9.40;;;;;;;8.62;55.61;100601.04;106465;1300;21950;-60
2023/01/05 04:36:40;;;;;;;15.00;10.20;;;;;;;8.65;55.48;100598.60;106529;1296;21948;-62
2023/01/05 04:39:06;;;;;;;19.40;10.70;;;;;;;8.67;55.93;100598.41;106530;1299;21969;-62
2023/01/05 04:41:32;;;;;;;17.10;10.60;;;;;;;8.72;55.56;100595.96;106412;1300;21975;-60
2023/01/05 04:43:58;;;;;;;23.40;13.20;;;;;;;8.78;55.40;100595.96;106333;1298;21955;-62
2023/01/05 04:46:24;;;;;;;15.90;10.40;;;;;;;8.83;55.23;100586.86;106684;1300;21971;-59
2023/01/05 04:48:50;;;;;;;20.40;12.60;;;;;;;8.84;55.60;100582.11;106518;1300;21959;-61
2023/01/05 04:51:15;;;;;;;24.00;14.30;;;;;;;8.85;55.58;100580.70;106547;1300;21944;-59
2023/01/05 04:53:41;;;;;;;21.90;13.40;;;;;;;8.87;55.57;100575.98;106530;1300;22157;-62
2023/01/05 04:56:09;;;;;;;28.70;15.80;;;;;;;8.89;55.66;100577.73;106535;1300;21953;-59
2023/01/05 04:58:35;;;;;;;23.60;13.70;;;;;;;8.94;55.60;100569.33;106534;1288;21959;-62
2023/01/05 05:01:04;;;;;;;22.90;14.20;;;;;;;8.97;55.49;100562.48;106623;1300;22420;-63
2023/01/05 05:03:31;;;;;;;31.30;16.90;;;;;;;8.96;55.90;100560.74;106668;1300;21977;-60
2023/01/05 05:05:56;;;;;;;24.20;15.10;;;;;;;8.96;55.74;100559.52;106639;1300;21980;-63
2023/01/05 05:08:22;;;;;;;26.10;16.00;;;;;;;8.92;55.96;100558.30;106399;1299;21961;-61
2023/01/05 05:10:48;;;;;;;31.50;16.80;;;;;;;8.86;56.33;100552.52;106614;1291;21949;-60
2023/01/05 05:13:14;;;;;;;19.40;12.90;;;;;;;8.84;56.17;100545.90;106399;1300;21956;-61
2023/01/05 05:15:44;;;;;;;25.20;15.10;;;;;;;8.89;56.07;100544.48;106273;1300;359219;-61
2023/01/05 05:18:10;;;;;;;18.40;12.60;;;;;;;8.91;56.05;100541.33;106461;1300;21972;-61
2023/01/05 05:20:36;;;;;;;18.60;12.40;;;;;;;8.90;56.23;100533.63;106599;1300;21949;-61
2023/01/05 05:23:02;;;;;;;20.40;13.50;;;;;;;8.84;56.41;100530.85;106552;1297;21961;-61
2023/01/05 05:25:28;;;;;;;22.90;13.90;;;;;;;8.90;56.43;100525.77;106446;1300;21951;-61
2023/01/05 05:27:55;;;;;;;21.60;13.10;;;;;;;8.92;56.57;100521.20;106434;1300;21980;-63
2023/01/05 05:30:21;;;;;;;19.40;11.70;;;;;;;8.92;56.68;100521.90;106550;1291;21961;-61
2023/01/05 05:32:47;;;;;;;21.50;13.30;;;;;;;8.96;56.51;100515.59;106445;1299;21957;-62
2023/01/05 05:35:13;;;;;;;23.20;14.60;;;;;;;8.98;56.26;100512.08;106544;1300;21951;-62
2023/01/05 05:37:39;;;;;;;36.80;18.70;;;;;;;8.99;56.33;100510.16;106512;1300;21956;-61
2023/01/05 05:40:06;;;;;;;45.80;20.50;;;;;;;8.98;56.31;100511.04;106547;1300;21963;-63
2023/01/05 05:42:33;;;;;;;31.20;16.60;;;;;;;8.95;56.50;100508.23;106581;1300;22128;-61
2023/01/05 05:44:59;;;;;;;58.50;24.10;;;;;;;8.91;56.84;100503.17;106662;1296;21963;-61
2023/01/05 05:47:25;;;;;;;56.10;22.70;;;;;;;8.95;56.72;100499.66;105778;1300;1002624;-61
2023/01/05 05:49:51;;;;;;;44.20;20.00;;;;;;;8.97;56.60;100496.34;106539;1300;21965;-61
2023/01/05 05:52:17;;;;;;;38.90;18.10;;;;;;;8.98;56.58;100491.61;106517;1300;24386;-61
2023/01/05 05:54:43;;;;;;;72.30;25.80;;;;;;;8.98;56.64;100486.17;106198;1303;23363;-63
2023/01/05 05:57:08;;;;;;;67.10;24.00;;;;;;;8.97;56.86;100487.58;106355;1300;21956;-63
2023/01/05 05:59:34;;;;;;;126.90;36.60;;;;;;;9.01;56.78;100485.83;105868;1292;1002614;-63
2023/01/05 06:02:00;;;;;;;110.20;30.40;;;;;;;9.00;56.78;100486.34;106625;1300;21962;-61
2023/01/05 06:04:26;;;;;;;116.50;32.00;;;;;;;8.98;56.88;100480.93;106643;1300;21967;-61
2023/01/05 06:06:52;;;;;;;154.70;42.90;;;;;;;8.98;57.02;100478.30;106619;1299;21948;-61
2023/01/05 06:09:18;;;;;;;352.40;75.80;;;;;;;8.98;56.90;100476.73;106648;1300;22144;-61
2023/01/05 06:11:44;;;;;;;164.80;43.70;;;;;;;8.95;57.29;100474.28;106590;1297;21958;-62
2023/01/05 06:14:09;;;;;;;207.40;54.40;;;;;;;8.93;57.41;100470.98;106543;1296;21965;-61
2023/01/05 06:16:36;;;;;;;135.00;40.60;;;;;;;8.92;57.60;100469.58;106546;1299;21965;-61
2023/01/05 06:19:01;;;;;;;146.90;43.40;;;;;;;8.82;57.95;100469.61;106254;1300;23641;-59
2023/01/05 06:21:28;;;;;;;150.10;43.20;;;;;;;8.84;57.90;100468.39;106498;1296;21952;-59
2023/01/05 06:23:53;;;;;;;199.20;49.90;;;;;;;8.94;57.59;100465.89;106500;1299;21965;-62
2023/01/05 06:26:19;;;;;;;325.00;73.50;;;;;;;8.84;58.20;100464.52;106542;1300;23164;-62
2023/01/05 06:28:44;;;;;;;383.00;82.30;;;;;;;8.79;58.58;100464.20;106488;1299;21966;-61
2023/01/05 06:31:11;;;;;;;273.00;53.80;;;;;;;8.86;58.32;100450.88;106405;1300;21962;-59
2023/01/05 06:33:37;;;;;;;231.50;52.60;;;;;;;8.91;57.91;100437.02;106451;1300;22011;-62
2023/01/05 06:36:03;;;;;;;165.70;41.00;;;;;;;8.91;57.99;100427.05;106397;1291;21957;-62
2023/01/05 06:38:29;;;;;;;112.40;34.40;;;;;;;8.89;58.33;100420.77;106430;1300;21956;-62
2023/01/05 06:40:56;;;;;;;143.70;42.10;;;;;;;8.91;58.37;100413.58;104193;1300;1003072;-59
2023/01/05 06:43:23;;;;;;;110.50;37.10;;;;;;;8.94;58.41;100414.44;106281;1297;21973;-59
2023/01/05 06:45:50;;;;;;;169.10;57.90;;;;;;;8.94;58.47;100414.61;106353;1300;21951;-61
2023/01/05 06:48:15;;;;;;;74.00;35.90;;;;;;;9.00;58.15;100405.32;106418;1300;21951;-59
2023/01/05 06:50:42;;;;;;;52.50;30.60;;;;;;;9.05;58.23;100409.48;106397;1299;21969;-62
2023/01/05 06:53:08;;;;;;;44.40;26.00;;;;;;;9.03;58.29;100414.92;106339;1300;21959;-61
2023/01/05 06:55:34;;;;;;;42.30;26.40;;;;;;;9.03;58.29;100413.17;106417;1290;21956;-60
2023/01/05 06:58:00;;;;;;;38.60;25.00;;;;;;;9.10;58.05;100406.48;106523;1300;21973;-62
2023/01/05 07:00:26;;;;;;;39.20;23.50;;;;;;;9.08;58.26;100400.89;106432;1300;21964;-62
2023/01/05 07:02:52;;;;;;;40.30;23.80;;;;;;;9.08;58.38;100393.36;106323;1299;21971;-61
2023/01/05 07:05:21;;;;;;;48.00;25.90;;;;;;;9.08;58.51;100394.41;106472;1300;22032;-59
2023/01/05 07:07:47;;;;;;;66.80;31.80;;;;;;;9.10;58.65;100386.69;106309;1300;21969;-62
2023/01/05 07:10:13;;;;;;;67.60;31.20;;;;;;;9.15;58.42;100376.16;106462;1300;21971;-60
2023/01/05 07:12:39;;;;;;;64.60;30.00;;;;;;;9.14;58.66;100378.80;106484;1296;21948;-62
2023/01/05 07:15:05;;;;;;;44.90;23.70;;;;;;;9.16;58.67;100375.98;106618;1300;21972;-59
2023/01/05 07:17:33;;;;;;;40.70;22.60;;;;;;;9.04;59.26;100371.68;106510;1300;21972;-59
2023/01/05 07:19:59;;;;;;;51.40;25.50;;;;;;;9.00;59.37;100373.28;106497;1300;21941;-59
2023/01/05 07:22:27;;;;;;;54.90;26.80;;;;;;;9.05;59.07;100369.92;106497;1300;24360;-59
2023/01/05 07:24:53;;;;;;;62.80;33.00;;;;;;;9.14;58.73;100369.69;106596;1300;21954;-61
2023/01/05 07:27:19;;;;;;;48.00;27.20;;;;;;;9.20;58.76;100373.34;106641;1297;22003;-59
2023/01/05 07:29:46;;;;;;;37.30;24.30;;;;;;;9.27;58.61;100366.64;106765;1300;21965;-63
2023/01/05 07:32:12;;;;;;;34.30;23.60;;;;;;;9.30;58.50;100371.86;106333;1300;21977;-62
2023/01/05 07:34:39;;;;;;;30.40;20.40;;;;;;;9.29;58.79;100372.39;106878;1300;21936;-63
2023/01/05 07:37:05;;;;;;;27.60;19.50;;;;;;;9.33;58.79;100360.80;106562;1300;23140;-63
2023/01/05 07:39:31;;;;;;;27.30;18.30;;;;;;;9.32;58.86;100347.15;106688;1300;22019;-63
2023/01/05 07:41:57;;;;;;;31.70;22.20;;;;;;;9.30;59.17;100340.70;106529;1296;21995;-60
2023/01/05 07:44:23;;;;;;;27.20;18.20;;;;;;;9.30;59.22;100335.79;106590;1300;21956;-62
2023/01/05 07:46:48;;;;;;;35.40;22.50;;;;;;;9.39;58.79;100336.95;106539;1300;23627;-60
2023/01/05 07:49:15;;;;;;;44.80;27.90;;;;;;;9.37;59.22;100335.73;106483;1296;21964;-62
2023/01/05 07:51:41;;;;;;;44.50;26.50;;;;;;;9.41;59.39;100333.43;106295;1300;21958;-63
2023/01/05 07:54:07;;;;;;;42.00;24.70;;;;;;;9.49;59.30;100334.05;106261;1300;21985;-60
2023/01/05 07:56:33;;;;;;;43.00;26.40;;;;;;;9.57;59.13;100331.88;106235;1298;21962;-60
2023/01/05 07:58:58;;;;;;;64.80;32.70;;;;;;;9.60;59.21;100321.70;108399;1299;21827;-63
2023/01/05 08:01:24;;;;;;;49.60;25.70;;;;;;;9.69;58.98;100318.12;106780;1295;21945;-62
2023/01/05 08:03:50;;;;;;;78.70;34.70;;;;;;;9.74;59.03;100320.86;106244;1298;21948;-63
2023/01/05 08:06:18;;;;;;;41.70;24.20;;;;;;;9.77;58.98;100322.77;106478;1289;22003;-63
2023/01/05 08:08:44;;;;;;;26.20;18.10;;;;;;;9.82;59.00;100315.02;106599;1300;21957;-63
2023/01/05 08:11:14;;;;;;;22.70;17.70;;;;;;;9.91;58.93;100309.14;106622;1300;21959;-60
2023/01/05 08:13:59;;;;;;;21.20;15.00;;;;;;;9.98;58.82;100298.71;106619;1297;21971;-60
2023/01/05 08:16:26;;;;;;;23.30;16.20;;;;;;;10.00;58.50;100295.70;106546;1300;21956;-60
2023/01/05 08:18:53;;;;;;;24.60;17.00;;;;;;;9.97;58.51;100301.70;106405;1300;21965;-60
2023/01/05 08:21:19;;;;;;;24.40;15.10;;;;;;;9.97;58.48;100293.64;106328;1300;21953;-60
2023/01/05 08:23:44;;;;;;;22.40;15.40;;;;;;;10.04;58.57;100286.20;106334;1300;21958;-60
2023/01/05 08:26:13;;;;;;;23.70;16.20;;;;;;;10.03;58.63;100284.63;106333;1300;21981;-64
2023/01/05 08:28:39;;;;;;;24.70;18.40;;;;;;;10.05;58.59;100280.57;106319;1299;21967;-63
2023/01/05 08:31:16;;;;;;;24.00;17.30;;;;;;;10.11;58.58;100275.43;106301;1297;21962;-59
2023/01/05 08:33:46;;;;;;;27.30;18.20;;;;;;;10.10;58.33;100270.70;106272;1300;21969;-65
2023/01/05 08:36:14;;;;;;;29.60;20.40;;;;;;;10.11;58.35;100261.40;106405;1300;21985;-64
2023/01/05 08:38:46;;;;;;;31.90;22.00;;;;;;;10.11;58.38;100251.76;106453;1300;23738;-60
2023/01/05 08:41:22;;;;;;;24.50;17.50;;;;;;;10.11;58.35;100238.44;106333;1300;21954;-65
2023/01/05 08:43:52;;;;;;;28.30;18.50;;;;;;;10.17;58.37;100240.45;106454;1296;21965;-65
2023/01/05 08:46:19;;;;;;;35.20;22.40;;;;;;;10.24;58.22;100238.62;106319;1300;22007;-65
2023/01/05 08:48:52;;;;;;;25.90;19.70;;;;;;;10.24;58.22;100226.69;106365;1299;21963;-65
2023/01/05 08:51:18;;;;;;;20.80;15.80;;;;;;;10.23;58.43;100222.66;106312;1300;21973;-60
2023/01/05 08:53:45;;;;;;;21.20;15.90;;;;;;;10.27;58.36;100212.79;106285;1300;21963;-60
2023/01/05 08:56:12;;;;;;;20.30;14.60;;;;;;;10.31;58.28;100204.14;106434;1301;21961;-65
2023/01/05 08:58:40;;;;;;;24.00;16.70;;;;;;;10.37;58.46;100202.49;105662;1299;1002446;-61
2023/01/05 09:01:11;;;;;;;23.90;16.80;;;;;;;10.45;58.33;100205.73;106486;1300;23157;-60
2023/01/05 09:03:40;;;;;;;23.80;16.60;;;;;;;10.50;58.31;100199.70;106447;1300;22906;-61
2023/01/05 09:06:08;;;;;;;27.50;17.50;;;;;;;10.54;58.33;100202.10;106307;1300;21997;-66
2023/01/05 09:08:37;;;;;;;22.60;15.50;;;;;;;10.64;58.40;100192.65;106332;1299;21950;-61
2023/01/05 09:11:11;;;;;;;26.60;17.60;;;;;;;10.71;58.66;100191.48;108071;1300;21962;-63
2023/01/05 09:13:38;;;;;;;22.10;16.70;;;;;;;10.78;58.46;100189.10;106297;1300;21967;-59
2023/01/05 09:16:09;;;;;;;24.10;17.20;;;;;;;10.80;58.25;100182.39;106505;1300;21960;-65
2023/01/05 09:18:36;;;;;;;24.50;17.00;;;;;;;10.75;58.61;100174.04;106612;1300;21965;-59
2023/01/05 09:21:02;;;;;;;21.20;15.40;;;;;;;10.77;58.59;100165.77;106678;1300;21956;-64
2023/01/05 09:23:28;;;;;;;24.70;16.90;;;;;;;10.84;58.39;100163.36;106658;1299;21937;-65
2023/01/05 09:25:54;;;;;;;27.50;17.40;;;;;;;10.82;58.51;100161.29;106431;1300;21953;-61
2023/01/05 09:28:20;;;;;;;33.70;20.90;;;;;;;10.87;58.33;100159.99;106632;1300;22008;-59
2023/01/05 09:30:46;;;;;;;32.80;19.70;;;;;;;10.95;58.21;100160.02;106560;1299;21953;-59
2023/01/05 09:33:12;;;;;;;37.30;21.30;;;;;;;11.00;57.90;100153.98;106453;1300;21959;-60
2023/01/05 09:35:38;;;;;;;38.90;21.60;;;;;;;11.06;57.56;100152.30;106381;1300;21977;-66
2023/01/05 09:38:04;;;;;;;39.00;21.90;;;;;;;11.16;57.47;100148.06;106527;1300;21953;-60
2023/01/05 09:40:36;;;;;;;50.20;25.30;;;;;;;11.23;57.62;100145.31;106481;1300;21956;-65
2023/01/05 09:43:04;;;;;;;37.20;21.10;;;;;;;11.23;57.87;100156.36;106527;1299;21959;-66
2023/01/05 09:45:30;;;;;;;31.20;19.90;;;;;;;11.25;57.74;100164.60;106320;1300;23120;-66
2023/01/05 09:47:56;;;;;;;25.10;16.10;;;;;;;11.24;57.71;100148.79;106631;1299;21972;-61
2023/01/05 09:50:23;;;;;;;32.10;20.80;;;;;;;11.33;57.73;100137.56;106274;1300;21967;-66
2023/01/05 09:52:50;;;;;;;28.00;18.20;;;;;;;11.36;57.51;100131.34;106551;1300;22013;-66
2023/01/05 09:55:18;;;;;;;38.40;22.90;;;;;;;11.41;57.25;100124.77;106518;1300;21950;-66
2023/01/05 09:58:06;;;;;;;35.70;20.30;;;;;;;11.47;57.19;100123.77;106421;1300;21954;-65
2023/01/05 10:00:32;;;;;;;37.10;19.90;;;;;;;11.52;57.11;100122.27;106336;1291;22423;-64
2023/01/05 10:03:05;;;;;;;24.40;16.30;;;;;;;11.55;57.05;100122.73;106268;1300;21966;-59
2023/01/05 10:05:31;;;;;;;32.70;19.70;;;;;;;11.60;56.86;100117.70;106474;1299;21985;-64
2023/01/05 10:08:01;;;;;;;28.90;17.30;;;;;;;11.60;56.97;100112.61;106294;1300;21958;-65
2023/01/05 10:13:43;;;;;;;48.50;22.90;;;;;;;11.74;56.57;100092.81;107468;1300;21962;-60
2023/01/05 10:16:14;;;;;;;40.10;22.60;;;;;;;11.83;56.41;100079.77;106579;1300;22763;-65
2023/01/05 10:18:40;;;;;;;45.40;23.10;;;;;;;11.88;56.37;100071.23;106453;1291;21959;-66
2023/01/05 10:21:09;;;;;;;37.20;21.90;;;;;;;11.95;56.17;100065.81;106253;1297;21961;-66
2023/01/05 10:23:53;;;;;;;34.20;21.10;;;;;;;11.95;56.07;100068.25;106485;1296;21959;-60
2023/01/05 10:26:32;;;;;;;42.10;24.60;;;;;;;11.98;55.84;100054.83;106629;1300;21965;-66
2023/01/05 10:29:12;;;;;;;41.60;22.90;;;;;;;12.07;55.95;100034.24;106323;1300;21953;-66
2023/01/05 10:31:45;;;;;;;28.00;17.70;;;;;;;12.08;55.91;100033.00;106571;1300;22002;-60
2023/01/05 10:34:23;;;;;;;31.80;18.60;;;;;;;12.12;55.87;100030.95;106524;1298;21987;-66
2023/01/05 10:37:08;;;;;;;31.20;18.70;;;;;;;12.15;55.69;100029.98;106266;1298;21950;-60
2023/01/05 10:39:48;;;;;;;31.30;19.30;;;;;;;12.10;55.45;100025.90;106537;1299;21974;-60
2023/01/05 10:42:27;;;;;;;36.60;21.50;;;;;;;12.14;55.33;100014.38;106505;1300;22125;-59
2023/01/05 10:44:58;;;;;;;33.90;20.30;;;;;;;12.18;55.55;100016.21;106656;1300;21950;-61
2023/01/05 10:47:24;;;;;;;34.10;20.50;;;;;;;12.22;55.41;100009.08;106380;1300;21961;-66
2023/01/05 10:49:50;;;;;;;32.60;19.80;;;;;;;12.27;55.60;100002.09;106392;1300;22006;-66
2023/01/05 10:52:18;;;;;;;27.70;18.80;;;;;;;12.29;55.56;99999.23;106288;1299;21963;-66
2023/01/05 10:54:55;;;;;;;27.60;17.50;;;;;;;12.31;55.39;99990.04;106326;1300;21961;-66
2023/01/05 10:57:28;;;;;;;24.70;17.10;;;;;;;12.32;55.31;99976.64;106269;1300;21958;-65
2023/01/05 11:00:07;;;;;;;23.90;16.40;;;;;;;12.34;55.13;99964.45;106307;1300;21944;-60
2023/01/05 11:02:37;;;;;;;25.60;17.10;;;;;;;12.38;55.16;99957.82;106346;1300;21958;-60
2023/01/05 11:05:09;;;;;;;22.90;16.70;;;;;;;12.47;54.76;99952.14;106283;1300;21954;-66
2023/01/05 11:07:53;;;;;;;22.10;15.20;;;;;;;12.55;54.70;99949.63;106412;1300;21984;-66
2023/01/05 11:10:30;;;;;;;20.00;14.60;;;;;;;12.67;54.63;99945.79;102839;1300;2006554;-67
2023/01/05 11:13:15;;;;;;;20.20;14.90;;;;;;;12.72;54.50;99928.92;106220;1291;22186;-61
2023/01/05 11:15:47;;;;;;;25.00;17.30;;;;;;;12.78;54.59;99919.95;106509;1300;21964;-66
2023/01/05 11:18:49;;;;;;;19.30;14.70;;;;;;;12.79;54.47;99911.84;106616;1298;21949;-60
2023/01/05 11:21:22;;;;;;;22.30;15.30;;;;;;;12.84;54.46;99902.71;106349;1300;21967;-59
2023/01/05 11:23:49;;;;;;;23.40;15.60;;;;;;;12.84;54.32;99900.75;106227;1300;22012;-61
2023/01/05 11:26:18;;;;;;;22.70;15.70;;;;;;;12.83;54.06;99897.63;106591;1300;21989;-65
2023/01/05 11:29:08;;;;;;;24.30;15.70;;;;;;;12.90;54.11;99889.34;103431;1300;2002460;-65
2023/01/05 11:31:41;;;;;;;20.80;15.00;;;;;;;12.99;53.99;99865.30;106203;1300;21966;-65
2023/01/05 11:34:13;;;;;;;20.40;14.10;;;;;;;13.03;54.02;99844.73;106483;1300;21948;-66
2023/01/05 11:36:39;;;;;;;21.00;14.70;;;;;;;13.07;54.20;99840.52;106266;1300;22002;-67
2023/01/05 11:39:32;;;;;;;21.30;16.00;;;;;;;13.08;54.22;99848.96;106526;1300;22010;-61
2023/01/05 11:42:23;;;;;;;21.90;14.40;;;;;;;13.10;54.11;99864.95;106267;1300;23337;-61
2023/01/05 11:45:19;;;;;;;21.60;15.50;;;;;;;13.09;54.02;99870.08;106491;1300;21965;-61
2023/01/05 11:47:47;;;;;;;20.00;13.80;;;;;;;13.12;53.98;99864.38;106547;1300;22009;-67
2023/01/05 11:50:14;;;;;;;19.50;13.50;;;;;;;13.21;54.07;99863.36;106359;1300;22410;-61
2023/01/05 11:52:43;;;;;;;20.60;14.30;;;;;;;13.27;53.84;99870.05;106645;1300;21961;-61
2023/01/05 11:55:24;;;;;;;21.20;15.20;;;;;;;13.30;54.04;99871.21;106682;1291;21964;-67